Terminal Aerodrome Forecast
Issued by NWS Twin Cities, MN

Home | Current Version | Previous Version | Text Only | Print | Product List | Glossary On
Versions: 1 2 3 4 5 6 7 8 9 10 11 12 13 14 15
000
FTUS43 KMPX 171500 AAA
TAFEAU
TAF AMD
KEAU 171559Z 1716/1812 32010KT P6SM OVC008
     FM171800 31009KT P6SM BKN015
     FM172200 31009KT P6SM BKN025
     FM180000 32004KT P6SM SCT030
     FM180800 VRB02KT P6SM SCT250=

USA.gov is the U.S. government's official web portal to all federal, state and local government web resources and services.